createdAt,value
2018-07-01T00:00:45.665Z,0.97
2018-07-01T00:03:13.849Z,0.40
2018-07-01T00:05:42.304Z,0.50
2018-07-01T00:08:10.501Z,0.70
2018-07-01T00:10:38.692Z,0.50
2018-07-01T00:13:06.829Z,0.60
2018-07-01T00:15:34.992Z,0.80
2018-07-01T00:18:03.167Z,1.37
2018-07-01T00:20:31.348Z,0.50
2018-07-01T00:22:59.520Z,0.40
2018-07-01T00:25:28.016Z,0.50
2018-07-01T00:27:56.197Z,0.63
2018-07-01T00:30:24.366Z,0.57
2018-07-01T00:32:52.543Z,0.80
2018-07-01T00:35:20.692Z,0.60
2018-07-01T00:37:48.857Z,0.40
2018-07-01T00:40:17.001Z,0.60
2018-07-01T00:42:45.161Z,0.60
2018-07-01T00:45:13.324Z,1.17
2018-07-01T00:47:41.652Z,0.97
2018-07-01T00:50:09.800Z,1.43
2018-07-01T00:52:37.980Z,1.00
2018-07-01T00:55:06.236Z,0.57
2018-07-01T00:57:34.400Z,0.40
2018-07-01T01:00:02.573Z,0.80
2018-07-01T01:02:30.732Z,0.90
2018-07-01T01:04:59.077Z,0.60
2018-07-01T01:07:27.413Z,0.70
2018-07-01T01:09:55.760Z,1.37
2018-07-01T01:12:23.908Z,0.63
2018-07-01T01:14:52.187Z,0.60
2018-07-01T01:17:20.948Z,0.60
2018-07-01T01:19:49.252Z,1.23
2018-07-01T01:22:17.631Z,0.70
2018-07-01T01:24:45.799Z,1.80
2018-07-01T01:27:14.174Z,0.90
2018-07-01T01:29:42.329Z,0.90
2018-07-01T01:32:10.492Z,0.50
2018-07-01T01:34:38.655Z,1.07
2018-07-01T01:37:06.830Z,0.73
2018-07-01T01:39:38.092Z,0.90
2018-07-01T01:42:10.380Z,0.60
2018-07-01T01:44:45.000Z,0.97
2018-07-01T01:47:17.727Z,2.00
2018-07-01T01:49:51.717Z,1.97
2018-07-01T01:52:27.650Z,0.60
2018-07-01T01:55:07.532Z,1.67
2018-07-01T01:57:43.453Z,0.70
2018-07-01T02:00:15.912Z,1.30
2018-07-01T02:02:49.240Z,0.87
2018-07-01T02:05:37.018Z,1.43
2018-07-01T02:08:08.496Z,0.60
2018-07-01T02:10:36.715Z,1.30
2018-07-01T02:13:05.258Z,0.70
2018-07-01T02:15:44.440Z,1.27
2018-07-01T02:18:12.925Z,0.90
2018-07-01T02:20:41.836Z,1.10
2018-07-01T02:23:43.393Z,0.50
2018-07-01T02:26:11.574Z,1.40
2018-07-01T02:28:39.831Z,1.00
2018-07-01T02:31:08.169Z,0.80
2018-07-01T02:33:36.353Z,0.57
2018-07-01T02:36:04.752Z,1.33
2018-07-01T02:38:32.928Z,0.80
2018-07-01T02:41:01.084Z,1.33
2018-07-01T02:43:29.272Z,3.03
2018-07-01T02:45:57.681Z,1.63
2018-07-01T02:48:25.865Z,0.70
2018-07-01T02:50:54.536Z,0.60
2018-07-01T02:53:22.697Z,0.90
2018-07-01T02:55:50.854Z,0.60
2018-07-01T02:58:19.466Z,0.70
2018-07-01T03:00:47.620Z,0.70
2018-07-01T03:03:15.970Z,0.50
2018-07-01T03:05:44.139Z,1.00
2018-07-01T03:08:12.318Z,1.47
2018-07-01T03:10:40.480Z,1.90
2018-07-01T03:13:08.644Z,0.90
2018-07-01T03:15:36.801Z,2.93
2018-07-01T03:18:04.988Z,0.60
2018-07-01T03:20:33.145Z,0.90
2018-07-01T03:23:01.392Z,1.03
2018-07-01T03:25:29.608Z,0.60
2018-07-01T03:27:57.760Z,0.80
2018-07-01T03:30:25.956Z,0.90
2018-07-01T03:32:54.728Z,1.57
2018-07-01T03:35:23.101Z,1.20
2018-07-01T03:37:51.259Z,0.70
2018-07-01T03:40:19.478Z,0.50
2018-07-01T03:42:47.813Z,1.43
2018-07-01T03:45:16.020Z,1.10
2018-07-01T03:47:44.184Z,0.60
2018-07-01T03:50:12.392Z,0.60
2018-07-01T03:52:40.480Z,0.80
2018-07-01T03:55:08.649Z,0.80
2018-07-01T03:57:36.867Z,1.23
2018-07-01T04:00:05.087Z,0.90
2018-07-01T04:02:33.248Z,1.20
2018-07-01T04:05:01.419Z,0.80
2018-07-01T04:07:29.580Z,0.70
2018-07-01T04:09:57.756Z,0.70
2018-07-01T04:12:25.905Z,1.10
2018-07-01T04:14:54.065Z,1.60
2018-07-01T04:17:22.224Z,0.90
2018-07-01T04:19:50.393Z,0.77
2018-07-01T04:22:18.576Z,0.60
2018-07-01T04:24:46.740Z,1.80
2018-07-01T04:27:14.892Z,0.90
2018-07-01T04:29:43.055Z,0.80
2018-07-01T04:32:11.197Z,1.07
2018-07-01T04:34:39.367Z,0.70
2018-07-01T04:37:07.507Z,1.07
2018-07-01T04:39:35.669Z,2.40
2018-07-01T04:42:03.820Z,1.00
2018-07-01T04:44:31.996Z,1.10
2018-07-01T04:47:00.153Z,1.00
2018-07-01T04:49:28.300Z,1.93
2018-07-01T04:51:56.454Z,1.17
2018-07-01T04:54:24.623Z,0.70
2018-07-01T04:56:52.789Z,0.70
2018-07-01T04:59:20.973Z,1.33
2018-07-01T05:01:49.201Z,0.53
2018-07-01T05:04:17.548Z,1.40
2018-07-01T05:06:45.480Z,1.57
2018-07-01T05:09:14.396Z,1.13
2018-07-01T05:11:43.280Z,0.90
2018-07-01T05:14:11.671Z,1.30
2018-07-01T05:16:40.156Z,1.10
2018-07-01T05:19:08.913Z,2.23
2018-07-01T05:21:37.131Z,0.70
2018-07-01T05:24:05.346Z,0.83
2018-07-01T05:26:33.496Z,1.73
2018-07-01T05:29:01.705Z,1.43
2018-07-01T05:31:29.895Z,3.07
2018-07-01T05:33:58.145Z,2.10
2018-07-01T05:36:26.364Z,1.10
2018-07-01T05:38:54.532Z,2.50
2018-07-01T05:41:22.803Z,1.03
2018-07-01T05:43:50.941Z,1.27
2018-07-01T05:46:19.242Z,0.83
2018-07-01T05:48:47.388Z,1.07
2018-07-01T05:51:15.585Z,1.77
2018-07-01T05:53:43.806Z,1.20
2018-07-01T05:56:11.957Z,2.20
2018-07-01T05:58:40.123Z,0.70
2018-07-01T06:01:08.276Z,2.10
2018-07-01T06:03:36.442Z,1.67
2018-07-01T06:06:05.192Z,1.03
2018-07-01T06:08:33.412Z,0.80
2018-07-01T06:11:01.545Z,1.40
2018-07-01T06:13:29.677Z,1.63
2018-07-01T06:15:57.921Z,1.63
2018-07-01T06:18:26.161Z,0.80
2018-07-01T06:20:54.332Z,0.70
2018-07-01T06:23:22.477Z,1.20
2018-07-01T06:25:51.425Z,1.10
2018-07-01T06:28:19.584Z,1.07
2018-07-01T06:30:47.756Z,0.80
2018-07-01T06:33:15.895Z,0.90
2018-07-01T06:35:44.058Z,0.90
2018-07-01T06:38:12.200Z,1.07
2018-07-01T06:40:40.376Z,0.90
2018-07-01T06:43:08.536Z,0.80
2018-07-01T06:45:36.692Z,1.97
2018-07-01T06:48:05.101Z,1.37
2018-07-01T06:50:33.257Z,2.20
2018-07-01T06:53:01.483Z,0.97
2018-07-01T06:55:29.632Z,2.00
2018-07-01T06:57:57.908Z,2.60
2018-07-01T07:00:26.132Z,0.80
2018-07-01T07:02:54.267Z,0.60
2018-07-01T07:05:22.612Z,1.20
2018-07-01T07:07:50.828Z,1.53
2018-07-01T07:10:18.974Z,0.80
2018-07-01T07:12:47.119Z,1.30
2018-07-01T07:15:15.327Z,1.03
2018-07-01T07:17:43.485Z,0.60
2018-07-01T07:20:11.652Z,1.13
2018-07-01T07:22:39.902Z,1.80
2018-07-01T07:25:08.057Z,1.17
2018-07-01T07:27:36.211Z,0.70
2018-07-01T07:30:04.661Z,1.00
2018-07-01T07:32:32.853Z,0.90
2018-07-01T07:35:01.053Z,0.60
2018-07-01T07:37:29.261Z,2.30
2018-07-01T07:39:57.403Z,1.13
2018-07-01T07:42:25.572Z,0.70
2018-07-01T07:44:53.742Z,1.30
2018-07-01T07:47:21.879Z,1.13
2018-07-01T07:49:50.063Z,2.53
2018-07-01T07:52:18.251Z,0.80
2018-07-01T07:54:46.367Z,2.17
2018-07-01T07:57:14.556Z,0.70
2018-07-01T07:59:43.024Z,1.63
2018-07-01T08:02:11.191Z,1.37
2018-07-01T08:04:39.330Z,1.20
2018-07-01T08:07:07.485Z,0.97
2018-07-01T08:09:35.642Z,1.40
2018-07-01T08:12:03.824Z,1.10
2018-07-01T08:14:31.974Z,1.67
2018-07-01T08:17:00.378Z,1.30
2018-07-01T08:19:28.656Z,1.27
2018-07-01T08:21:57.310Z,0.70
2018-07-01T08:24:25.416Z,1.70
2018-07-01T08:26:53.832Z,0.80
2018-07-01T08:29:22.021Z,1.03
2018-07-01T08:31:50.186Z,1.10
2018-07-01T08:34:18.512Z,2.67
2018-07-01T08:36:46.673Z,1.30
2018-07-01T08:39:15.104Z,2.30
2018-07-01T08:41:56.322Z,1.70
2018-07-01T08:44:24.484Z,2.40
2018-07-01T08:46:52.646Z,1.77
2018-07-01T08:49:20.857Z,1.97
2018-07-01T08:51:49.050Z,0.90
2018-07-01T08:54:17.793Z,1.57
2018-07-01T08:56:45.971Z,1.63
2018-07-01T08:59:14.119Z,1.40
2018-07-01T09:01:42.611Z,2.23
2018-07-01T09:04:10.759Z,1.63
2018-07-01T09:06:38.910Z,0.93
2018-07-01T09:09:07.593Z,1.60
2018-07-01T09:11:35.741Z,1.10
2018-07-01T09:14:04.009Z,1.33
2018-07-01T09:16:32.353Z,1.67
2018-07-01T09:19:00.492Z,0.80
2018-07-01T09:21:28.644Z,2.20
2018-07-01T09:23:56.915Z,3.60
2018-07-01T09:26:25.065Z,0.93
2018-07-01T09:28:53.548Z,2.20
2018-07-01T09:31:21.729Z,0.97
2018-07-01T09:33:49.882Z,1.30
2018-07-01T09:36:18.032Z,1.00
2018-07-01T09:38:46.178Z,2.00
2018-07-01T09:41:14.332Z,1.00
2018-07-01T09:43:42.509Z,1.13
2018-07-01T09:46:10.666Z,1.43
2018-07-01T09:48:38.935Z,0.90
2018-07-01T09:51:07.107Z,1.57
2018-07-01T09:53:35.380Z,1.53
2018-07-01T09:56:03.635Z,2.10
2018-07-01T09:58:31.795Z,0.60
2018-07-01T10:00:59.968Z,2.67
2018-07-01T10:03:28.150Z,2.50
2018-07-01T10:05:56.297Z,2.67
2018-07-01T10:08:24.467Z,1.90
2018-07-01T10:10:52.694Z,1.17
2018-07-01T10:13:20.862Z,1.37
2018-07-01T10:15:49.031Z,1.90
2018-07-01T10:18:17.181Z,0.70
2018-07-01T10:20:45.360Z,1.57
2018-07-01T10:23:13.609Z,2.03
2018-07-01T10:25:41.756Z,1.63
2018-07-01T10:28:09.912Z,0.90
2018-07-01T10:30:38.129Z,1.37
2018-07-01T10:33:06.489Z,2.07
2018-07-01T10:35:34.626Z,0.70
2018-07-01T10:38:02.801Z,1.07
2018-07-01T10:40:30.957Z,0.97
2018-07-01T10:42:59.170Z,1.77
2018-07-01T10:45:27.315Z,2.50
2018-07-01T10:47:55.842Z,2.27
2018-07-01T10:50:24.047Z,1.70
2018-07-01T10:52:52.200Z,1.43
2018-07-01T10:55:20.355Z,1.20
2018-07-01T10:57:48.510Z,2.83
2018-07-01T11:00:16.694Z,1.90
2018-07-01T11:02:44.849Z,2.13
2018-07-01T11:05:13.009Z,3.20
2018-07-01T11:07:41.221Z,1.60
2018-07-01T11:10:09.367Z,1.67
2018-07-01T11:12:37.527Z,0.60
2018-07-01T11:15:05.693Z,0.83
2018-07-01T11:17:34.218Z,1.17
2018-07-01T11:20:02.388Z,1.57
2018-07-01T11:22:30.529Z,1.13
2018-07-01T11:24:59.101Z,0.97
2018-07-01T11:27:27.309Z,0.97
2018-07-01T11:29:55.425Z,1.70
2018-07-01T11:32:24.057Z,1.23
2018-07-01T11:34:52.313Z,1.00
2018-07-01T11:37:21.060Z,0.73
2018-07-01T11:39:49.274Z,1.27
2018-07-01T11:42:17.938Z,2.00
2018-07-01T11:44:46.938Z,1.00
2018-07-01T11:47:15.597Z,1.27
2018-07-01T11:49:44.540Z,3.77
2018-07-01T11:52:12.818Z,1.00
2018-07-01T11:54:41.029Z,0.90
2018-07-01T11:57:09.214Z,1.17
2018-07-01T11:59:37.410Z,2.30
2018-07-01T12:02:06.971Z,1.03
2018-07-01T12:04:35.235Z,1.70
2018-07-01T12:07:03.656Z,1.10
2018-07-01T12:09:31.820Z,1.07
2018-07-01T12:12:00.486Z,4.37
2018-07-01T12:14:28.588Z,2.53
2018-07-01T12:16:56.746Z,1.50
2018-07-01T12:19:24.663Z,1.87
2018-07-01T12:21:53.730Z,1.30
2018-07-01T12:24:22.362Z,1.57
2018-07-01T12:26:50.624Z,0.90
2018-07-01T12:29:19.171Z,1.17
2018-07-01T12:31:47.540Z,1.40
2018-07-01T12:34:15.728Z,1.60
2018-07-01T12:36:43.893Z,0.90
2018-07-01T12:39:12.738Z,0.77
2018-07-01T12:41:40.952Z,2.00
2018-07-01T12:44:09.525Z,1.70
2018-07-01T12:46:38.020Z,0.90
2018-07-01T12:49:06.180Z,0.80
2018-07-01T12:51:34.798Z,1.13
2018-07-01T12:54:03.172Z,1.67
2018-07-01T12:56:31.562Z,2.13
2018-07-01T12:58:59.737Z,2.47
2018-07-01T13:01:27.898Z,0.70
2018-07-01T13:03:56.284Z,1.67
2018-07-01T13:06:24.476Z,1.10
2018-07-01T13:08:52.715Z,1.70
2018-07-01T13:11:20.982Z,3.10
2018-07-01T13:13:49.206Z,1.07
2018-07-01T13:16:17.676Z,1.30
2018-07-01T13:18:46.164Z,0.70
2018-07-01T13:21:14.416Z,2.23
2018-07-01T13:23:42.611Z,1.90
2018-07-01T13:26:11.388Z,1.13
2018-07-01T13:28:39.568Z,0.90
2018-07-01T13:31:07.986Z,1.73
2018-07-01T13:33:36.533Z,1.50
2018-07-01T13:36:04.855Z,1.40
2018-07-01T13:38:37.036Z,0.70
2018-07-01T13:41:06.118Z,1.93
2018-07-01T13:43:34.509Z,0.60
2018-07-01T13:46:03.164Z,2.03
2018-07-01T13:48:32.043Z,1.83
2018-07-01T13:51:00.569Z,0.90
2018-07-01T13:53:29.059Z,1.23
2018-07-01T13:55:57.295Z,1.10
2018-07-01T13:58:26.243Z,2.33
2018-07-01T14:00:55.601Z,0.70
2018-07-01T14:03:23.788Z,1.00
2018-07-01T14:05:51.953Z,0.70
2018-07-01T14:08:21.375Z,2.27
2018-07-01T14:10:50.139Z,1.03
2018-07-01T14:13:18.332Z,0.63
2018-07-01T14:15:46.508Z,1.13
2018-07-01T14:18:14.665Z,1.03
2018-07-01T14:20:42.961Z,0.60
2018-07-01T14:23:11.948Z,0.67
2018-07-01T14:25:40.125Z,0.80
2018-07-01T14:28:08.265Z,1.63
2018-07-01T14:30:36.433Z,1.67
2018-07-01T14:33:05.222Z,1.70
2018-07-01T14:35:33.398Z,1.20
2018-07-01T14:38:01.627Z,1.73
2018-07-01T14:40:29.785Z,0.97
2018-07-01T14:42:57.948Z,1.67
2018-07-01T14:45:26.118Z,1.70
2018-07-01T14:47:54.387Z,1.53
2018-07-01T14:50:22.665Z,1.80
2018-07-01T14:52:50.840Z,1.50
2018-07-01T14:55:19.023Z,1.13
2018-07-01T14:57:47.178Z,1.40
2018-07-01T15:00:15.336Z,1.70
2018-07-01T15:02:43.501Z,1.50
2018-07-01T15:05:11.675Z,1.33
2018-07-01T15:07:40.025Z,1.67
2018-07-01T15:10:08.996Z,1.20
2018-07-01T15:12:38.015Z,2.73
2018-07-01T15:15:06.437Z,0.70
2018-07-01T15:17:34.684Z,0.80
2018-07-01T15:20:03.073Z,1.23
2018-07-01T15:22:31.228Z,1.70
2018-07-01T15:24:59.400Z,1.00
2018-07-01T15:27:27.777Z,0.93
2018-07-01T15:29:56.081Z,1.30
2018-07-01T15:32:24.993Z,1.07
2018-07-01T15:34:53.202Z,0.90
2018-07-01T15:37:21.569Z,1.23
2018-07-01T15:39:49.731Z,1.73
2018-07-01T15:42:17.932Z,1.33
2018-07-01T15:44:46.220Z,0.80
2018-07-01T15:47:14.389Z,1.00
2018-07-01T15:49:42.552Z,0.60
2018-07-01T15:52:10.732Z,1.33
2018-07-01T15:54:39.024Z,1.20
2018-07-01T15:57:07.181Z,0.80
2018-07-01T15:59:35.421Z,1.63
2018-07-01T16:02:03.645Z,1.00
2018-07-01T16:04:31.788Z,0.73
2018-07-01T16:07:00.147Z,0.80
2018-07-01T16:09:28.321Z,1.50
2018-07-01T16:11:56.737Z,1.00
2018-07-01T16:14:25.773Z,0.90
2018-07-01T16:16:54.464Z,2.30
2018-07-01T16:19:24.405Z,0.90
2018-07-01T16:21:52.990Z,1.37
2018-07-01T16:24:21.205Z,1.00
2018-07-01T16:26:54.571Z,0.87
2018-07-01T16:29:23.328Z,0.70
2018-07-01T16:31:52.069Z,1.53
2018-07-01T16:34:21.301Z,0.80
2018-07-01T16:36:49.676Z,0.80
2018-07-01T16:39:17.833Z,0.97
2018-07-01T16:41:46.023Z,0.83
2018-07-01T16:44:14.193Z,0.77
2018-07-01T16:46:42.429Z,0.70
2018-07-01T16:49:10.576Z,0.90
2018-07-01T16:51:38.855Z,1.70
2018-07-01T16:54:07.004Z,1.20
2018-07-01T16:56:35.212Z,2.13
2018-07-01T16:59:03.632Z,5.87
2018-07-01T17:01:31.829Z,20.63
2018-07-01T17:03:59.988Z,25.40
2018-07-01T17:06:28.239Z,11.40
2018-07-01T17:08:57.552Z,11.00
2018-07-01T17:11:25.952Z,4.40
2018-07-01T17:13:55.184Z,3.07
2018-07-01T17:16:23.357Z,1.53
2018-07-01T17:18:51.504Z,1.27
2018-07-01T17:21:19.661Z,1.43
2018-07-01T17:23:47.993Z,1.43
2018-07-01T17:26:17.027Z,0.90
2018-07-01T17:28:45.778Z,0.97
2018-07-01T17:31:19.703Z,0.80
2018-07-01T17:33:47.881Z,1.13
2018-07-01T17:36:16.204Z,1.00
2018-07-01T17:38:44.387Z,1.10
2018-07-01T17:41:12.548Z,0.80
2018-07-01T17:43:40.761Z,1.57
2018-07-01T17:46:08.948Z,2.83
2018-07-01T17:48:37.147Z,3.55
2018-07-01T17:51:05.301Z,2.30
2018-07-01T17:53:44.900Z,4.47
2018-07-01T17:56:13.065Z,3.63
2018-07-01T17:58:41.223Z,2.60
2018-07-01T18:01:09.420Z,1.70
2018-07-01T18:03:37.581Z,1.10
2018-07-01T18:06:06.024Z,1.93
2018-07-01T18:08:34.396Z,1.50
2018-07-01T18:11:02.549Z,2.10
2018-07-01T18:13:30.804Z,1.40
2018-07-01T18:15:59.040Z,1.43
2018-07-01T18:18:27.383Z,1.10
2018-07-01T18:20:55.800Z,1.00
2018-07-01T18:23:53.697Z,1.37
2018-07-01T18:25:52.676Z,1.37
2018-07-01T18:28:34.107Z,0.83
2018-07-01T18:30:49.498Z,3.33
2018-07-01T18:33:17.738Z,1.10
2018-07-01T18:35:46.006Z,0.80
2018-07-01T18:38:14.470Z,1.13
2018-07-01T18:40:44.294Z,1.03
2018-07-01T18:43:13.577Z,0.93
2018-07-01T18:45:42.183Z,1.00
2018-07-01T18:48:12.247Z,2.47
2018-07-01T18:50:44.683Z,0.93
2018-07-01T18:53:13.403Z,1.03
2018-07-01T18:55:42.130Z,1.73
2018-07-01T18:58:10.379Z,2.10
2018-07-01T19:00:38.817Z,0.93
2018-07-01T19:03:07.109Z,2.47
2018-07-01T19:05:35.350Z,0.70
2018-07-01T19:08:03.709Z,1.73
2018-07-01T19:10:32.051Z,2.00
2018-07-01T19:13:00.341Z,0.70
2018-07-01T19:15:29.617Z,0.80
2018-07-01T19:17:57.869Z,1.03
2018-07-01T19:20:26.258Z,2.33
2018-07-01T19:22:54.595Z,0.93
2018-07-01T19:25:28.196Z,0.80
2018-07-01T19:27:56.574Z,0.70
2018-07-01T19:30:24.732Z,0.57
2018-07-01T19:32:52.952Z,1.37
2018-07-01T19:35:21.396Z,0.60
2018-07-01T19:37:49.816Z,0.70
2018-07-01T19:40:17.972Z,0.50
2018-07-01T19:42:46.229Z,0.50
2018-07-01T19:45:14.290Z,0.60
2018-07-01T19:47:42.528Z,0.60
2018-07-01T19:50:27.442Z,0.47
2018-07-01T19:53:03.708Z,0.37
2018-07-01T19:55:37.211Z,0.70
2018-07-01T19:58:11.369Z,0.43
2018-07-01T20:00:45.704Z,0.37
2018-07-01T20:03:13.923Z,0.40
2018-07-01T20:05:42.101Z,1.97
2018-07-01T20:08:10.359Z,0.50
2018-07-01T20:10:38.480Z,0.40
2018-07-01T20:13:06.717Z,0.37
2018-07-01T20:15:34.901Z,0.50
2018-07-01T20:18:03.073Z,0.53
2018-07-01T20:20:31.241Z,1.83
2018-07-01T20:22:59.411Z,0.50
2018-07-01T20:25:27.618Z,0.50
2018-07-01T20:27:55.780Z,1.07
2018-07-01T20:30:23.942Z,0.50
2018-07-01T20:32:52.115Z,0.50
2018-07-01T20:35:20.280Z,0.60
2018-07-01T20:37:48.449Z,0.43
2018-07-01T20:40:16.636Z,0.70
2018-07-01T20:42:44.816Z,0.40
2018-07-01T20:45:13.001Z,0.40
2018-07-01T20:47:42.076Z,0.50
2018-07-01T20:50:10.238Z,0.40
2018-07-01T20:52:38.414Z,0.40
2018-07-01T20:55:06.583Z,0.30
2018-07-01T20:57:34.732Z,0.40
2018-07-01T21:00:02.900Z,0.50
2018-07-01T21:02:31.076Z,0.40
2018-07-01T21:04:59.261Z,0.50
2018-07-01T21:07:27.417Z,0.23
2018-07-01T21:09:55.583Z,0.30
2018-07-01T21:12:23.736Z,0.33
2018-07-01T21:14:51.887Z,0.40
2018-07-01T21:17:20.082Z,0.67
2018-07-01T21:19:48.255Z,0.33
2018-07-01T21:22:16.396Z,0.37
2018-07-01T21:24:44.589Z,0.30
2018-07-01T21:27:12.744Z,0.50
2018-07-01T21:29:40.932Z,0.30
2018-07-01T21:32:09.098Z,0.40
2018-07-01T21:34:37.261Z,0.43
2018-07-01T21:37:05.501Z,0.40
2018-07-01T21:39:33.674Z,0.63
2018-07-01T21:42:01.915Z,0.93
2018-07-01T21:44:31.205Z,0.60
2018-07-01T21:46:59.373Z,0.70
2018-07-01T21:49:27.562Z,0.60
2018-07-01T21:51:55.724Z,0.60
2018-07-01T21:54:23.889Z,0.50
2018-07-01T21:56:52.061Z,0.40
2018-07-01T21:59:20.241Z,0.50
2018-07-01T22:01:48.371Z,0.40
2018-07-01T22:04:16.782Z,0.57
2018-07-01T22:06:50.258Z,0.40
2018-07-01T22:09:18.521Z,0.60
2018-07-01T22:12:00.845Z,0.57
2018-07-01T22:14:31.084Z,0.97
2018-07-01T22:16:59.524Z,0.67
2018-07-01T22:19:27.968Z,1.50
2018-07-01T22:21:56.735Z,0.77
2018-07-01T22:24:25.646Z,0.50
2018-07-01T22:26:54.062Z,0.70
2018-07-01T22:29:22.293Z,0.60
2018-07-01T22:31:50.499Z,0.60
2018-07-01T22:34:19.508Z,1.30
2018-07-01T22:36:48.214Z,0.87
2018-07-01T22:39:19.549Z,0.60
2018-07-01T22:41:48.415Z,0.50
2018-07-01T22:44:16.785Z,1.50
2018-07-01T22:46:45.624Z,0.60
2018-07-01T22:49:13.967Z,0.50
2018-07-01T22:51:42.247Z,0.53
2018-07-01T22:54:10.519Z,1.37
2018-07-01T22:56:38.762Z,0.53
2018-07-01T22:59:07.443Z,0.50
2018-07-01T23:01:35.949Z,0.70
2018-07-01T23:04:04.160Z,0.40
2018-07-01T23:06:32.617Z,0.40
2018-07-01T23:09:00.817Z,0.50
2018-07-01T23:11:28.992Z,0.43
2018-07-01T23:13:57.159Z,0.40
2018-07-01T23:16:25.328Z,0.30
2018-07-01T23:18:53.503Z,0.27
2018-07-01T23:21:21.679Z,0.50
2018-07-01T23:23:49.836Z,0.53
2018-07-01T23:26:17.764Z,0.40
2018-07-01T23:28:45.921Z,0.27
2018-07-01T23:31:14.085Z,0.20
2018-07-01T23:33:42.242Z,0.43
2018-07-01T23:36:10.404Z,0.33
2018-07-01T23:38:38.559Z,0.37
2018-07-01T23:41:06.715Z,0.53
2018-07-01T23:43:34.871Z,0.87
2018-07-01T23:46:03.053Z,0.40
2018-07-01T23:48:31.228Z,0.60
2018-07-01T23:50:59.404Z,1.13
2018-07-01T23:53:27.582Z,0.30
2018-07-01T23:55:55.812Z,0.30
2018-07-01T23:58:23.981Z,0.13
